createdAt,value
2022-08-07T00:02:46.678Z,17.48
2022-08-07T00:05:53.950Z,17.46
2022-08-07T00:09:07.849Z,17.45
2022-08-07T00:12:23.503Z,17.44
2022-08-07T00:15:38.015Z,17.43
2022-08-07T00:18:53.095Z,17.42
2022-08-07T00:22:02.117Z,17.42
2022-08-07T00:25:16.723Z,17.43
2022-08-07T00:28:23.946Z,17.43
2022-08-07T00:31:42.084Z,17.42
2022-08-07T00:34:49.402Z,17.42
2022-08-07T00:37:57.303Z,17.41
2022-08-07T00:41:04.279Z,17.40
2022-08-07T00:44:16.434Z,17.40
2022-08-07T00:48:08.317Z,17.39
2022-08-07T00:50:51.546Z,17.38
2022-08-07T00:53:58.070Z,17.38
2022-08-07T00:57:06.094Z,17.38
2022-08-07T01:00:15.831Z,17.36
2022-08-07T01:03:54.616Z,17.34
2022-08-07T01:06:49.249Z,17.31
2022-08-07T01:10:06.897Z,17.29
2022-08-07T01:13:17.157Z,17.28
2022-08-07T01:16:30.349Z,17.26
2022-08-07T01:19:38.403Z,17.25
2022-08-07T01:23:00.515Z,17.25
2022-08-07T01:26:13.368Z,17.24
2022-08-07T01:29:23.849Z,17.24
2022-08-07T01:32:34.810Z,17.24
2022-08-07T01:35:53.368Z,17.23
2022-08-07T01:39:01.162Z,17.18
2022-08-07T01:42:39.361Z,17.17
2022-08-07T01:45:36.847Z,17.17
2022-08-07T01:48:47.586Z,17.16
2022-08-07T01:52:01.600Z,17.17
2022-08-07T01:55:22.353Z,17.18
2022-08-07T01:58:33.938Z,17.19
2022-08-07T02:02:01.638Z,17.18
2022-08-07T02:05:16.195Z,17.18
2022-08-07T02:08:42.485Z,17.18
2022-08-07T02:12:03.482Z,17.17
2022-08-07T02:15:13.796Z,17.16
2022-08-07T02:18:22.627Z,17.16
2022-08-07T02:21:55.511Z,17.15
2022-08-07T02:25:07.139Z,17.15
2022-08-07T02:28:25.594Z,17.14
2022-08-07T02:31:34.928Z,17.14
2022-08-07T02:34:48.740Z,17.14
2022-08-07T02:37:59.583Z,17.13
2022-08-07T02:41:07.999Z,17.14
2022-08-07T02:44:18.015Z,17.11
2022-08-07T02:47:25.691Z,17.08
2022-08-07T02:50:34.308Z,17.07
2022-08-07T02:53:46.113Z,17.07
2022-08-07T02:56:53.235Z,17.08
2022-08-07T03:00:04.995Z,17.09
2022-08-07T03:03:22.575Z,17.09
2022-08-07T03:06:33.029Z,17.09
2022-08-07T03:09:45.450Z,17.10
2022-08-07T03:12:53.006Z,17.11
2022-08-07T03:15:59.383Z,17.11
2022-08-07T03:19:09.053Z,17.11
2022-08-07T03:22:18.817Z,17.11
2022-08-07T03:25:26.069Z,17.09
2022-08-07T03:28:42.067Z,17.06
2022-08-07T03:31:52.675Z,17.04
2022-08-07T03:35:17.867Z,17.04
2022-08-07T03:38:29.692Z,17.04
2022-08-07T03:41:41.979Z,17.04
2022-08-07T03:44:58.034Z,17.05
2022-08-07T03:48:10.071Z,17.06
2022-08-07T03:51:20.760Z,17.08
2022-08-07T03:54:36.043Z,17.09
2022-08-07T03:58:33.677Z,17.08
2022-08-07T04:01:22.465Z,17.10
2022-08-07T04:04:28.823Z,17.10
2022-08-07T04:07:42.761Z,17.12
2022-08-07T04:10:54.649Z,17.16
2022-08-07T04:14:37.661Z,17.17
2022-08-07T04:18:58.180Z,17.21
2022-08-07T04:21:13.715Z,17.25
2022-08-07T04:24:34.116Z,17.27
2022-08-07T04:27:59.276Z,17.29
2022-08-07T04:31:07.878Z,17.28
2022-08-07T04:34:27.586Z,17.26
2022-08-07T04:37:40.499Z,17.19
2022-08-07T04:41:07.015Z,17.16
2022-08-07T04:44:18.451Z,17.16
2022-08-07T04:47:58.796Z,17.16
2022-08-07T04:51:09.200Z,17.18
2022-08-07T04:54:30.048Z,17.19
2022-08-07T04:58:16.148Z,17.21
2022-08-07T05:01:19.281Z,17.22
2022-08-07T05:04:32.833Z,17.24
2022-08-07T05:07:48.675Z,17.29
2022-08-07T05:11:06.958Z,17.37
2022-08-07T05:14:55.792Z,17.44
2022-08-07T05:17:52.501Z,17.46
2022-08-07T05:21:04.828Z,17.37
2022-08-07T05:24:17.236Z,17.29
2022-08-07T05:28:02.703Z,17.21
2022-08-07T05:30:52.780Z,17.17
2022-08-07T05:34:01.119Z,17.21
2022-08-07T05:37:11.762Z,17.19
2022-08-07T05:40:20.613Z,17.24
2022-08-07T05:43:49.596Z,17.23
2022-08-07T05:46:54.156Z,17.23
2022-08-07T05:50:01.459Z,17.24
2022-08-07T05:53:07.866Z,17.25
2022-08-07T05:56:35.545Z,17.29
2022-08-07T05:59:57.493Z,17.27
2022-08-07T06:03:07.050Z,17.17
2022-08-07T06:06:18.931Z,17.14
2022-08-07T06:10:04.369Z,17.21
2022-08-07T06:12:52.739Z,17.27
2022-08-07T06:16:02.757Z,17.30
2022-08-07T06:19:18.082Z,17.32
2022-08-07T06:22:40.119Z,17.23
2022-08-07T06:25:54.647Z,17.20
2022-08-07T06:29:04.306Z,17.21
2022-08-07T06:32:13.361Z,17.27
2022-08-07T06:35:19.611Z,17.36
2022-08-07T06:38:28.790Z,17.44
2022-08-07T06:42:02.477Z,17.44
2022-08-07T06:45:12.270Z,17.50
2022-08-07T07:00:17.780Z,18.18
2022-08-07T07:03:39.811Z,18.25
2022-08-07T07:07:00.510Z,18.24
2022-08-07T07:10:08.725Z,18.26
2022-08-07T07:13:41.449Z,18.27
2022-08-07T07:16:53.486Z,18.28
2022-08-07T07:20:03.972Z,18.33
2022-08-07T07:24:08.821Z,18.31
2022-08-07T07:26:39.735Z,18.40
2022-08-07T07:30:07.410Z,18.41
2022-08-07T07:33:19.990Z,18.47
2022-08-07T07:36:32.696Z,18.60
2022-08-07T07:39:52.092Z,18.64
2022-08-07T07:43:15.135Z,18.70
2022-08-07T07:46:40.358Z,18.74
2022-08-07T07:50:34.145Z,18.86
2022-08-07T07:53:25.647Z,19.03
2022-08-07T07:56:33.184Z,19.13
2022-08-07T07:59:52.813Z,19.29
2022-08-07T08:03:08.051Z,19.44
2022-08-07T08:06:16.102Z,19.52
2022-08-07T08:09:24.620Z,19.49
2022-08-07T08:12:52.105Z,19.48
2022-08-07T08:16:01.947Z,19.54
2022-08-07T08:20:15.757Z,19.61
2022-08-07T08:22:58.618Z,19.65
2022-08-07T08:26:25.209Z,19.81
2022-08-07T08:29:37.792Z,20.00
2022-08-07T08:33:04.039Z,20.17
2022-08-07T08:36:13.651Z,20.22
2022-08-07T08:39:22.785Z,20.41
2022-08-07T08:42:33.593Z,20.43
2022-08-07T08:45:59.003Z,20.31
2022-08-07T08:49:13.734Z,20.25
2022-08-07T08:52:23.908Z,20.35
2022-08-07T08:55:54.649Z,20.28
2022-08-07T08:59:13.590Z,20.24
2022-08-07T09:02:35.220Z,20.40
2022-08-07T09:05:49.741Z,20.43
2022-08-07T09:09:09.671Z,20.37
2022-08-07T09:12:53.098Z,20.35
2022-08-07T09:16:24.458Z,20.37
2022-08-07T09:19:55.431Z,20.46
2022-08-07T09:24:33.733Z,20.54
2022-08-07T09:26:51.066Z,20.54
2022-08-07T09:30:08.325Z,20.63
2022-08-07T09:33:41.271Z,20.76
2022-08-07T09:37:10.941Z,21.06
2022-08-07T09:40:25.565Z,21.07
2022-08-07T09:44:05.644Z,21.13
2022-08-07T09:47:52.481Z,21.18
2022-08-07T09:51:05.437Z,21.19
2022-08-07T09:54:36.346Z,21.06
2022-08-07T09:58:32.014Z,21.19
2022-08-07T10:01:59.142Z,21.35
2022-08-07T10:05:59.461Z,21.44
2022-08-07T10:09:34.202Z,21.59
2022-08-07T10:13:03.602Z,21.85
2022-08-07T10:16:24.352Z,21.74
2022-08-07T10:19:54.222Z,21.79
2022-08-07T10:23:13.558Z,21.76
2022-08-07T10:26:38.326Z,21.57
2022-08-07T10:30:07.182Z,21.52
2022-08-07T10:34:05.006Z,21.57
2022-08-07T10:37:12.688Z,21.50
2022-08-07T10:40:30.314Z,21.38
2022-08-07T10:43:43.372Z,21.28
2022-08-07T10:47:01.265Z,21.29
2022-08-07T10:50:12.658Z,21.37
2022-08-07T10:53:41.943Z,21.32
2022-08-07T10:57:04.581Z,21.38
2022-08-07T11:00:36.633Z,21.35
2022-08-07T11:03:53.003Z,21.42
2022-08-07T11:07:24.694Z,21.55
2022-08-07T11:10:52.277Z,21.65
2022-08-07T11:14:45.310Z,21.63
2022-08-07T11:17:45.811Z,21.53
2022-08-07T11:21:04.303Z,21.65
2022-08-07T11:24:19.703Z,21.61
2022-08-07T11:28:01.624Z,21.63
2022-08-07T11:31:04.112Z,21.73
2022-08-07T11:34:23.563Z,21.89
2022-08-07T11:37:58.146Z,21.95
2022-08-07T11:41:30.993Z,22.04
2022-08-07T11:44:58.013Z,22.13
2022-08-07T11:48:32.237Z,22.22
2022-08-07T11:52:04.775Z,22.41
2022-08-07T11:56:11.915Z,22.35
2022-08-07T11:59:02.445Z,22.72
2022-08-07T12:02:30.263Z,22.99
2022-08-07T12:05:50.524Z,22.83
2022-08-07T12:09:16.246Z,22.75
2022-08-07T12:12:36.898Z,22.57
2022-08-07T12:16:06.027Z,22.42
2022-08-07T12:19:21.348Z,22.30
2022-08-07T12:22:47.262Z,22.62
2022-08-07T12:26:29.028Z,22.78
2022-08-07T12:29:40.389Z,22.98
2022-08-07T12:32:53.841Z,23.27
2022-08-07T12:36:02.335Z,23.41
2022-08-07T12:39:43.605Z,23.24
2022-08-07T12:42:38.007Z,23.04
2022-08-07T12:46:15.781Z,23.04
2022-08-07T12:49:51.674Z,22.96
2022-08-07T12:53:18.558Z,22.80
2022-08-07T12:56:32.403Z,22.53
2022-08-07T12:59:54.354Z,22.28
2022-08-07T13:03:27.019Z,22.07
2022-08-07T13:08:13.539Z,21.95
2022-08-07T13:10:59.481Z,21.85
2022-08-07T13:14:17.760Z,21.82
2022-08-07T13:17:34.753Z,21.86
2022-08-07T13:20:51.932Z,21.86
2022-08-07T13:24:07.626Z,21.74
2022-08-07T13:27:22.039Z,21.63
2022-08-07T13:30:39.905Z,21.62
2022-08-07T13:34:34.652Z,21.57
2022-08-07T13:37:27.133Z,21.65
2022-08-07T13:40:42.846Z,21.72
2022-08-07T13:43:52.716Z,21.71
2022-08-07T13:47:04.792Z,21.76
2022-08-07T13:50:36.633Z,21.84
2022-08-07T13:54:00.238Z,21.88
2022-08-07T13:57:14.524Z,21.97
2022-08-07T14:00:54.087Z,22.03
2022-08-07T14:04:07.587Z,22.14
2022-08-07T14:07:15.710Z,22.31
2022-08-07T14:10:28.329Z,22.46
2022-08-07T14:13:36.633Z,22.57
2022-08-07T14:16:53.005Z,22.61
2022-08-07T14:20:39.922Z,22.63
2022-08-07T14:24:00.056Z,22.50
2022-08-07T14:27:16.263Z,22.42
2022-08-07T14:30:34.155Z,22.52
2022-08-07T14:33:44.784Z,22.61
2022-08-07T14:36:55.891Z,22.59
2022-08-07T14:40:18.044Z,22.63
2022-08-07T14:43:58.470Z,22.66
2022-08-07T14:50:28.148Z,22.67
2022-08-07T14:54:03.529Z,22.57
2022-08-07T14:57:08.122Z,22.48
2022-08-07T15:03:52.464Z,22.30
2022-08-07T15:07:00.921Z,22.36
2022-08-07T15:10:11.223Z,22.40
2022-08-07T15:16:55.768Z,22.32
2022-08-07T15:20:32.871Z,22.38
2022-08-07T15:27:15.395Z,22.38
2022-08-07T15:30:21.910Z,22.41
2022-08-07T15:33:33.847Z,22.49
2022-08-07T15:37:03.964Z,22.49
2022-08-07T15:40:33.770Z,22.41
2022-08-07T15:43:55.702Z,22.39
2022-08-07T15:47:16.890Z,22.40
2022-08-07T15:53:58.340Z,22.33
2022-08-07T15:57:10.597Z,22.36
2022-08-07T16:00:38.027Z,22.43
2022-08-07T16:03:57.399Z,22.51
2022-08-07T16:08:31.520Z,22.53
2022-08-07T16:10:37.593Z,22.53
2022-08-07T16:14:00.184Z,22.50
2022-08-07T16:18:01.550Z,22.44
2022-08-07T16:22:01.226Z,22.40
2022-08-07T16:24:35.560Z,22.35
2022-08-07T16:27:57.086Z,22.25
2022-08-07T16:31:50.336Z,22.13
2022-08-07T16:34:48.825Z,22.06
2022-08-07T16:38:15.990Z,22.01
2022-08-07T16:41:48.580Z,21.93
2022-08-07T16:46:34.669Z,21.88
2022-08-07T16:50:28.615Z,21.77
2022-08-07T16:54:01.469Z,21.67
2022-08-07T16:58:01.076Z,21.59
2022-08-07T17:01:15.930Z,21.55
2022-08-07T17:04:36.950Z,21.49
2022-08-07T17:07:58.150Z,21.44
2022-08-07T17:11:14.420Z,21.37
2022-08-07T17:14:31.955Z,21.30
2022-08-07T17:17:46.441Z,21.20
2022-08-07T17:20:54.902Z,21.07
2022-08-07T17:24:23.484Z,20.97
2022-08-07T17:27:50.808Z,20.84
2022-08-07T17:31:16.353Z,20.74
2022-08-07T17:34:34.558Z,20.61
2022-08-07T17:38:06.037Z,20.47
2022-08-07T17:42:04.580Z,20.28
2022-08-07T17:44:54.572Z,20.15
2022-08-07T17:48:10.280Z,20.06
2022-08-07T17:51:23.948Z,19.95
2022-08-07T17:54:55.310Z,19.85
2022-08-07T17:58:05.216Z,19.70
2022-08-07T18:01:21.850Z,19.58
2022-08-07T18:04:36.177Z,19.48
2022-08-07T18:07:47.483Z,19.35
2022-08-07T18:12:06.635Z,19.23
2022-08-07T18:14:45.020Z,19.13
2022-08-07T18:18:45.765Z,19.03
2022-08-07T18:21:53.498Z,18.89
2022-08-07T18:25:19.067Z,18.75
2022-08-07T18:28:58.732Z,18.61
2022-08-07T18:32:17.984Z,18.47
2022-08-07T18:35:51.812Z,18.37
2022-08-07T18:40:06.667Z,18.24
2022-08-07T18:42:46.217Z,18.15
2022-08-07T18:46:24.406Z,18.05
2022-08-07T18:50:31.521Z,17.94
2022-08-07T18:53:39.779Z,17.78
2022-08-07T18:57:29.421Z,17.64
2022-08-07T19:00:33.221Z,17.51
2022-08-07T19:03:52.135Z,17.39
2022-08-07T19:07:03.434Z,17.29
2022-08-07T19:10:21.482Z,17.19
2022-08-07T19:13:37.714Z,17.08
2022-08-07T19:17:07.831Z,16.98
2022-08-07T19:20:29.954Z,16.90
2022-08-07T19:23:58.849Z,16.84
2022-08-07T19:28:57.639Z,16.73
2022-08-07T19:31:06.375Z,16.61
2022-08-07T19:34:04.775Z,16.51
2022-08-07T19:37:17.299Z,16.44
2022-08-07T19:40:31.436Z,16.45
2022-08-07T19:43:49.536Z,16.43
2022-08-07T19:47:10.854Z,16.35
2022-08-07T19:50:44.510Z,16.22
2022-08-07T19:54:34.783Z,16.11
2022-08-07T19:58:04.779Z,16.01
2022-08-07T20:00:55.274Z,15.94
2022-08-07T20:04:03.530Z,15.87
2022-08-07T20:07:13.966Z,15.81
2022-08-07T20:10:55.237Z,15.79
2022-08-07T20:14:03.262Z,15.71
2022-08-07T20:17:14.911Z,15.63
2022-08-07T20:20:26.730Z,15.58
2022-08-07T20:23:42.833Z,15.53
2022-08-07T20:26:56.552Z,15.50
2022-08-07T20:30:07.539Z,15.44
2022-08-07T20:33:24.336Z,15.38
2022-08-07T20:36:51.741Z,15.31
2022-08-07T20:40:03.208Z,15.24
2022-08-07T20:43:19.676Z,15.17
2022-08-07T20:46:32.311Z,15.11
2022-08-07T20:49:59.717Z,15.05
2022-08-07T20:53:11.586Z,15.01
2022-08-07T20:56:25.820Z,14.98
2022-08-07T21:00:06.465Z,14.94
2022-08-07T21:03:03.280Z,14.91
2022-08-07T21:06:25.866Z,14.90
2022-08-07T21:09:53.206Z,14.91
2022-08-07T21:13:06.158Z,14.88
2022-08-07T21:16:14.559Z,14.84
2022-08-07T21:19:32.552Z,14.82
2022-08-07T21:22:55.844Z,14.80
2022-08-07T21:26:18.251Z,14.79
2022-08-07T21:29:33.476Z,14.77
2022-08-07T21:32:54.188Z,14.77
2022-08-07T21:36:11.959Z,14.74
2022-08-07T21:39:46.302Z,14.72
2022-08-07T21:43:00.974Z,14.72
2022-08-07T21:46:31.317Z,14.71
2022-08-07T21:50:01.076Z,14.73
2022-08-07T21:53:14.124Z,14.71
2022-08-07T21:56:39.612Z,14.69
2022-08-07T22:00:04.383Z,14.65
2022-08-07T22:03:18.740Z,14.61
2022-08-07T22:06:31.484Z,14.54
2022-08-07T22:09:54.006Z,14.50
2022-08-07T22:13:03.078Z,14.48
2022-08-07T22:16:44.258Z,14.42
2022-08-07T22:19:57.285Z,14.37
2022-08-07T22:23:13.754Z,14.34
2022-08-07T22:26:25.893Z,14.32
2022-08-07T22:29:47.991Z,14.29
2022-08-07T22:33:07.516Z,14.27
2022-08-07T22:36:26.093Z,14.23
2022-08-07T22:39:52.940Z,14.19
2022-08-07T22:43:11.145Z,14.15
2022-08-07T22:47:05.937Z,14.13
2022-08-07T22:50:48.947Z,14.08
2022-08-07T22:54:09.451Z,14.04
2022-08-07T22:57:37.383Z,14.00
2022-08-07T23:01:06.578Z,13.98
2022-08-07T23:04:36.250Z,13.96
2022-08-07T23:08:23.970Z,13.95
2022-08-07T23:11:49.971Z,13.93
2022-08-07T23:15:10.192Z,13.90
2022-08-07T23:18:32.044Z,13.88
2022-08-07T23:21:46.831Z,13.86
2022-08-07T23:25:10.881Z,13.83
2022-08-07T23:28:30.867Z,13.81
2022-08-07T23:34:20.271Z,13.82
2022-08-07T23:35:23.432Z,13.79
2022-08-07T23:38:43.241Z,13.75
2022-08-07T23:42:21.391Z,13.68
2022-08-07T23:46:03.525Z,13.63
2022-08-07T23:49:50.187Z,13.61
2022-08-07T23:53:08.503Z,13.61
2022-08-07T23:56:35.169Z,13.59
